Station Historical Data
Daily Summary for May 14, 2011 Units:  English    Metric   Both
« Previous Day
Next Day »
Daily Weekly Monthly Yearly Custom
  High: Low: Average:
Temperature: 61.9 °F 54.1 °F 59.3 °F
Dew Point: 60.0 °F 53.0 °F 58.2 °F
Humidity: 99% 83% 96%
Wind Speed: 10.0mph 0.0mph 3.7mph
Wind Gust: 21.0mph - -
Wind- - WSW
Pressure: 29.78 in 29.64 in -
Precipitation: 0.05 in    
Historical Graphs
 
 
Tabular Data for May 14, 2011
Time Temperature Dew Point Pressure Wind Wind Speed Wind Gust Humidity Rainfall Rate (Hourly) Conditions
00:00 60.1 °F 59.2 °F 29.71 in South 6.0 mph 10.0 mph 97% 0.10 in
00:05 60.2 °F 59.3 °F 29.70 in SE 6.0 mph 8.0 mph 97% 0.09 in
00:10 60.2 °F 59.3 °F 29.70 in SE 4.0 mph 8.0 mph 97% 0.07 in
00:11 60.2 °F 59.3 °F 29.70 in SE 4.0 mph 8.0 mph 97% 0.07 in
00:16 60.3 °F 59.5 °F 29.69 in ESE 5.0 mph 7.0 mph 97% 0.04 in
00:21 60.3 °F 59.5 °F 29.70 in SSW 3.0 mph 7.0 mph 97% 0.00 in
00:26 60.3 °F 59.5 °F 29.70 in SE 3.0 mph 4.0 mph 97% 0.00 in
00:27 60.3 °F 59.5 °F 29.70 in SSE 4.0 mph 4.0 mph 97% 0.00 in
00:31 60.3 °F 59.5 °F 29.70 in South 2.0 mph 5.0 mph 97% 0.00 in
00:32 60.3 °F 59.5 °F 29.70 in WSW 4.0 mph 4.0 mph 97% 0.00 in
00:36 60.3 °F 59.5 °F 29.70 in SSW 1.0 mph 4.0 mph 97% 0.00 in
00:41 60.3 °F 59.5 °F 29.70 in SSE 2.0 mph 5.0 mph 97% 0.00 in
00:46 60.3 °F 59.5 °F 29.70 in South 1.0 mph 2.0 mph 97% 0.00 in
00:51 60.3 °F 59.5 °F 29.70 in SW 3.0 mph 4.0 mph 97% 0.00 in
00:52 60.3 °F 59.5 °F 29.70 in SSE 2.0 mph 4.0 mph 97% 0.00 in
00:56 60.3 °F 59.5 °F 29.70 in SSW 1.0 mph 5.0 mph 97% 0.00 in
00:57 60.3 °F 59.5 °F 29.70 in South 2.0 mph 5.0 mph 97% 0.00 in
00:58 60.3 °F 59.5 °F 29.70 in South 2.0 mph 4.0 mph 97% 0.00 in
01:03 60.3 °F 59.5 °F 29.69 in SSW 3.0 mph 3.0 mph 97% 0.00 in
01:08 60.4 °F 59.5 °F 29.69 in SSW 3.0 mph 5.0 mph 97% 0.00 in
01:13 60.4 °F 59.5 °F 29.68 in SSW 3.0 mph 4.0 mph 97% 0.00 in
01:14 60.4 °F 59.5 °F 29.68 in South 1.0 mph 4.0 mph 97% 0.00 in
01:19 60.4 °F 59.5 °F 29.69 in SSE 2.0 mph 4.0 mph 97% 0.00 in
01:24 60.4 °F 59.5 °F 29.68 in SSE 3.0 mph 6.0 mph 97% 0.00 in
01:25 60.4 °F 59.5 °F 29.68 in SSE 6.0 mph 6.0 mph 97% 0.00 in
01:30 60.4 °F 59.5 °F 29.68 in SE 4.0 mph 5.0 mph 97% 0.00 in
01:35 60.4 °F 59.5 °F 29.67 in SE 3.0 mph 5.0 mph 97% 0.00 in
01:36 60.4 °F 59.5 °F 29.67 in SSW 4.0 mph 6.0 mph 97% 0.00 in
01:41 60.4 °F 59.5 °F 29.67 in SW 1.0 mph 4.0 mph 97% 0.00 in
01:47 60.3 °F 59.5 °F 29.66 in Calm   1.0 mph 97% 0.00 in
01:52 60.2 °F 59.3 °F 29.66 in SSE 1.0 mph 2.0 mph 97% 0.00 in
01:54 60.2 °F 59.3 °F 29.66 in SSE 1.0 mph 2.0 mph 97% 0.00 in
01:58 60.1 °F 59.2 °F 29.66 in SSE 1.0 mph 2.0 mph 97% 0.00 in
01:59 60.1 °F 59.2 °F 29.66 in SE 1.0 mph 2.0 mph 97% 0.00 in
02:04 60.0 °F 59.2 °F 29.66 in SSW 1.0 mph 1.0 mph 97% 0.00 in
02:09 59.9 °F 59.3 °F 29.66 in Calm   1.0 mph 98% 0.00 in
02:14 59.7 °F 58.8 °F 29.66 in SW 1.0 mph 2.0 mph 97% 0.00 in
02:19 59.6 °F 59.0 °F 29.66 in SW 1.0 mph 2.0 mph 98% 0.00 in
02:24 59.5 °F 58.9 °F 29.66 in SW 1.0 mph 4.0 mph 98% 0.00 in
02:29 59.3 °F 58.7 °F 29.66 in South 2.0 mph 2.0 mph 98% 0.00 in
02:34 59.2 °F 58.6 °F 29.66 in SSE 2.0 mph 2.0 mph 98% 0.00 in
02:35 59.2 °F 58.6 °F 29.66 in SSE 1.0 mph 2.0 mph 98% 0.00 in
02:36 59.2 °F 58.6 °F 29.66 in South 1.0 mph 2.0 mph 98% 0.00 in
02:39 59.2 °F 58.6 °F 29.66 in SW 1.0 mph 2.0 mph 98% 0.00 in
02:44 59.1 °F 58.5 °F 29.66 in WSW 2.0 mph 2.0 mph 98% 0.00 in
02:49 59.3 °F 58.7 °F 29.66 in SW 1.0 mph 2.0 mph 98% 0.00 in
02:54 59.4 °F 58.8 °F 29.66 in West 3.0 mph 4.0 mph 98% 0.00 in
02:55 59.4 °F 58.8 °F 29.66 in West 3.0 mph 4.0 mph 98% 0.00 in
03:00 59.5 °F 58.9 °F 29.66 in WSW 2.0 mph 3.0 mph 98% 0.00 in
03:05 59.5 °F 58.9 °F 29.65 in WSW 1.0 mph 2.0 mph 98% 0.00 in
03:10 59.6 °F 59.0 °F 29.65 in West 1.0 mph 2.0 mph 98% 0.00 in
03:15 59.6 °F 59.0 °F 29.65 in SW 2.0 mph 2.0 mph 98% 0.00 in
03:20 59.5 °F 58.9 °F 29.65 in SW 2.0 mph 3.0 mph 98% 0.00 in
03:25 59.6 °F 59.0 °F 29.65 in West 1.0 mph 2.0 mph 98% 0.00 in
03:26 59.6 °F 59.0 °F 29.65 in West 1.0 mph 2.0 mph 98% 0.00 in
03:31 59.6 °F 59.0 °F 29.65 in SW 1.0 mph 2.0 mph 98% 0.00 in
03:33 59.6 °F 59.0 °F 29.65 in SW 1.0 mph 2.0 mph 98% 0.00 in
03:36 59.6 °F 59.0 °F 29.65 in West 1.0 mph 2.0 mph 98% 0.00 in
03:38 59.7 °F 59.1 °F 29.65 in WSW 1.0 mph 2.0 mph 98% 0.00 in
03:42 59.7 °F 59.1 °F 29.65 in SW 1.0 mph 2.0 mph 98% 0.00 in
03:43 59.7 °F 59.1 °F 29.65 in SW 1.0 mph 2.0 mph 98% 0.00 in
03:48 59.7 °F 59.4 °F 29.64 in SW 1.0 mph 2.0 mph 99% 0.00 in
03:53 59.7 °F 59.4 °F 29.65 in South 1.0 mph 3.0 mph 99% 0.00 in
03:54 59.7 °F 59.4 °F 29.65 in South 1.0 mph 3.0 mph 99% 0.00 in
03:56 59.7 °F 59.4 °F 29.64 in SSE 1.0 mph 3.0 mph 99% 0.00 in
04:00 59.8 °F 59.5 °F 29.65 in Calm   2.0 mph 99% 0.00 in
04:05 59.7 °F 59.4 °F 29.65 in Calm   2.0 mph 99% 0.00 in
04:10 59.8 °F 59.5 °F 29.65 in Calm   2.0 mph 99% 0.00 in
04:15 59.8 °F 59.5 °F 29.65 in South 1.0 mph 2.0 mph 99% 0.00 in
04:16 59.8 °F 59.5 °F 29.65 in SW 1.0 mph 2.0 mph 99% 0.00 in
04:21 59.8 °F 59.5 °F 29.64 in SW 1.0 mph 2.0 mph 99% 0.00 in
04:26 59.9 °F 59.6 °F 29.65 in South 1.0 mph 3.0 mph 99% 0.00 in
04:27 59.9 °F 59.6 °F 29.65 in SW 2.0 mph 3.0 mph 99% 0.00 in
04:32 60.0 °F 59.7 °F 29.65 in SSW 4.0 mph 5.0 mph 99% 0.00 in
04:33 60.0 °F 59.7 °F 29.65 in SSW 4.0 mph 5.0 mph 99% 0.00 in
04:34 59.9 °F 59.6 °F 29.64 in WSW 7.0 mph 7.0 mph 99% 0.00 in
04:37 60.0 °F 59.7 °F 29.65 in West 1.0 mph 7.0 mph 99% 0.00 in
04:39 60.0 °F 59.7 °F 29.65 in West 2.0 mph 3.0 mph 99% 0.00 in
04:42 60.0 °F 59.7 °F 29.65 in West 3.0 mph 5.0 mph 99% 0.00 in
04:45 60.0 °F 59.7 °F 29.64 in WSW 3.0 mph 7.0 mph 99% 0.00 in
04:47 60.0 °F 59.7 °F 29.64 in West 1.0 mph 3.0 mph 99% 0.00 in
04:52 60.1 °F 59.8 °F 29.65 in WSW 2.0 mph 2.0 mph 99% 0.00 in
04:53 60.1 °F 59.8 °F 29.65 in WSW 2.0 mph 3.0 mph 99% 0.00 in
04:58 60.2 °F 59.9 °F 29.65 in WSW 2.0 mph 3.0 mph 99% 0.00 in
05:03 60.2 °F 59.9 °F 29.65 in WSW 1.0 mph 3.0 mph 99% 0.00 in
05:08 60.3 °F 60.0 °F 29.65 in WSW 1.0 mph 4.0 mph 99% 0.00 in
05:13 60.3 °F 60.0 °F 29.65 in West 2.0 mph 4.0 mph 99% 0.00 in
05:18 60.3 °F 59.7 °F 29.65 in West 5.0 mph 6.0 mph 98% 0.00 in
05:19 60.3 °F 59.7 °F 29.65 in West 4.0 mph 6.0 mph 98% 0.00 in
05:24 60.3 °F 59.7 °F 29.65 in WSW 5.0 mph 6.0 mph 98% 0.00 in
05:29 60.1 °F 59.5 °F 29.65 in WNW 8.0 mph 9.0 mph 98% 0.00 in
05:31 60.1 °F 59.2 °F 29.65 in West 3.0 mph 9.0 mph 97% 0.00 in
05:32 60.1 °F 59.2 °F 29.65 in West 3.0 mph 9.0 mph 97% 0.00 in
05:34 60.1 °F 59.2 °F 29.65 in WNW 5.0 mph 6.0 mph 97% 0.00 in
05:37 60.1 °F 59.2 °F 29.65 in WNW 3.0 mph 5.0 mph 97% 0.00 in
05:39 60.0 °F 59.2 °F 29.64 in West 2.0 mph 4.0 mph 97% 0.00 in
05:44 59.9 °F 59.0 °F 29.64 in WNW 5.0 mph 5.0 mph 97% 0.00 in
05:49 59.8 °F 59.0 °F 29.64 in West 3.0 mph 7.0 mph 97% 0.00 in
05:54 59.7 °F 58.6 °F 29.65 in West 4.0 mph 7.0 mph 96% 0.00 in
05:55 59.7 °F 58.6 °F 29.65 in West 4.0 mph 7.0 mph 96% 0.00 in
05:59 59.6 °F 58.5 °F 29.65 in WNW 6.0 mph 7.0 mph 96% 0.00 in
06:00 59.5 °F 58.4 °F 29.65 in West 9.0 mph 9.0 mph 96% 0.00 in
06:05 59.4 °F 58.0 °F 29.65 in WNW 5.0 mph 9.0 mph 95% 0.00 in
06:10 59.3 °F 57.9 °F 29.65 in NW 2.0 mph 7.0 mph 95% 0.00 in
06:15 59.2 °F 58.1 °F 29.65 in SW 4.0 mph 4.0 mph 96% 0.00 in
06:20 59.1 °F 58.0 °F 29.65 in WNW 2.0 mph 4.0 mph 96% 0.00 in
06:25 59.1 °F 58.0 °F 29.65 in WNW 5.0 mph 5.0 mph 96% 0.00 in
06:26 59.1 °F 58.0 °F 29.65 in NW 3.0 mph 5.0 mph 96% 0.00 in
06:29 59.1 °F 58.0 °F 29.65 in WNW 3.0 mph 5.0 mph 96% 0.00 in
06:31 59.0 °F 57.9 °F 29.65 in WNW 4.0 mph 5.0 mph 96% 0.00 in
06:32 59.0 °F 57.9 °F 29.65 in West 4.0 mph 5.0 mph 96% 0.00 in
06:36 59.0 °F 57.9 °F 29.65 in WNW 1.0 mph 4.0 mph 96% 0.00 in
06:37 59.0 °F 57.9 °F 29.65 in WNW 1.0 mph 4.0 mph 96% 0.00 in
06:41 58.9 °F 57.8 °F 29.66 in WNW 3.0 mph 6.0 mph 96% 0.00 in
06:42 58.9 °F 57.8 °F 29.66 in West 3.0 mph 6.0 mph 96% 0.00 in
06:46 58.8 °F 57.7 °F 29.66 in WNW 5.0 mph 6.0 mph 96% 0.00 in
06:47 58.8 °F 57.7 °F 29.66 in WNW 3.0 mph 6.0 mph 96% 0.00 in
06:51 58.7 °F 57.6 °F 29.66 in West 6.0 mph 6.0 mph 96% 0.00 in
06:52 58.7 °F 57.6 °F 29.66 in West 5.0 mph 6.0 mph 96% 0.00 in
06:53 58.7 °F 57.6 °F 29.66 in WSW 4.0 mph 6.0 mph 96% 0.00 in
06:57 58.7 °F 57.6 °F 29.67 in West 4.0 mph 6.0 mph 96% 0.00 in
07:02 58.6 °F 57.5 °F 29.67 in West 3.0 mph 6.0 mph 96% 0.00 in
07:08 58.4 °F 57.3 °F 29.67 in WSW 5.0 mph 7.0 mph 96% 0.00 in
07:13 58.4 °F 57.3 °F 29.67 in WSW 3.0 mph 5.0 mph 96% 0.00 in
07:18 58.3 °F 57.2 °F 29.67 in West 6.0 mph 8.0 mph 96% 0.00 in
07:23 58.2 °F 57.1 °F 29.67 in West 6.0 mph 8.0 mph 96% 0.00 in
07:28 58.1 °F 57.0 °F 29.67 in West 6.0 mph 10.0 mph 96% 0.00 in
07:32 58.0 °F 56.9 °F 29.68 in WNW 5.0 mph 10.0 mph 96% 0.00 in
07:33 58.0 °F 56.9 °F 29.67 in NW 5.0 mph 10.0 mph 96% 0.00 in
07:38 57.9 °F 56.8 °F 29.68 in WSW 8.0 mph 11.0 mph 96% 0.00 in
07:39 57.9 °F 56.8 °F 29.68 in West 6.0 mph 10.0 mph 96% 0.00 in
07:43 57.8 °F 56.7 °F 29.68 in West 4.0 mph 7.0 mph 96% 0.00 in
07:44 57.8 °F 56.7 °F 29.68 in West 3.0 mph 7.0 mph 96% 0.00 in
07:49 57.8 °F 56.7 °F 29.68 in West 6.0 mph 7.0 mph 96% 0.00 in
07:50 57.8 °F 56.7 °F 29.68 in West 4.0 mph 7.0 mph 96% 0.00 in
07:54 57.9 °F 56.8 °F 29.68 in WSW 2.0 mph 4.0 mph 96% 0.00 in
07:55 57.9 °F 56.8 °F 29.68 in WSW 2.0 mph 4.0 mph 96% 0.00 in
08:00 58.0 °F 56.9 °F 29.68 in WNW 4.0 mph 7.0 mph 96% 0.00 in
08:05 58.0 °F 56.6 °F 29.68 in WSW 5.0 mph 7.0 mph 95% 0.00 in
08:10 58.1 °F 56.7 °F 29.68 in West 6.0 mph 8.0 mph 95% 0.00 in
08:11 58.1 °F 56.7 °F 29.68 in SW 5.0 mph 11.0 mph 95% 0.00 in
08:15 58.2 °F 56.8 °F 29.68 in WSW 7.0 mph 8.0 mph 95% 0.00 in
08:20 58.2 °F 56.8 °F 29.68 in WSW 3.0 mph 9.0 mph 95% 0.00 in
08:25 58.2 °F 57.1 °F 29.69 in WSW 3.0 mph 5.0 mph 96% 0.00 in
08:26 58.2 °F 57.1 °F 29.69 in WSW 3.0 mph 5.0 mph 96% 0.00 in
08:30 58.2 °F 57.1 °F 29.69 in WNW 5.0 mph 7.0 mph 96% 0.00 in
08:31 58.2 °F 57.1 °F 29.69 in WSW 5.0 mph 7.0 mph 96% 0.00 in
08:32 58.2 °F 57.1 °F 29.69 in WSW 5.0 mph 7.0 mph 96% 0.00 in
08:36 58.4 °F 57.3 °F 29.69 in West 3.0 mph 5.0 mph 96% 0.00 in
08:38 58.4 °F 57.0 °F 29.68 in SW 3.0 mph 5.0 mph 95% 0.00 in
08:41 58.4 °F 57.0 °F 29.69 in WSW 6.0 mph 6.0 mph 95% 0.00 in
08:46 58.4 °F 57.3 °F 29.69 in WSW 3.0 mph 6.0 mph 96% 0.00 in
08:51 58.4 °F 57.3 °F 29.69 in WSW 7.0 mph 7.0 mph 96% 0.00 in
08:53 58.4 °F 57.3 °F 29.69 in WSW 6.0 mph 7.0 mph 96% 0.00 in
08:56 58.4 °F 57.3 °F 29.69 in West 4.0 mph 7.0 mph 96% 0.00 in
08:58 58.4 °F 57.3 °F 29.69 in West 4.0 mph 7.0 mph 96% 0.00 in
09:02 58.4 °F 57.0 °F 29.69 in WSW 3.0 mph 7.0 mph 95% 0.00 in
09:03 58.4 °F 57.3 °F 29.69 in SW 3.0 mph 7.0 mph 96% 0.00 in
09:07 58.5 °F 57.4 °F 29.69 in WNW 2.0 mph 4.0 mph 96% 0.00 in
09:12 58.6 °F 57.5 °F 29.69 in WSW 2.0 mph 5.0 mph 96% 0.00 in
09:17 58.6 °F 57.2 °F 29.69 in WSW 3.0 mph 4.0 mph 95% 0.00 in
09:22 58.7 °F 57.6 °F 29.69 in WNW 2.0 mph 6.0 mph 96% 0.00 in
09:23 58.7 °F 57.6 °F 29.69 in WNW 3.0 mph 6.0 mph 96% 0.00 in
09:28 58.8 °F 57.7 °F 29.69 in WSW 3.0 mph 5.0 mph 96% 0.00 in
09:30 58.7 °F 57.6 °F 29.69 in WSW 5.0 mph 6.0 mph 96% 0.00 in
09:33 58.7 °F 57.6 °F 29.69 in WSW 3.0 mph 7.0 mph 96% 0.00 in
09:35 58.8 °F 57.7 °F 29.69 in SSW 3.0 mph 5.0 mph 96% 0.00 in
09:36 58.8 °F 57.7 °F 29.69 in WSW 3.0 mph 5.0 mph 96% 0.00 in
09:40 58.8 °F 57.7 °F 29.69 in SW 3.0 mph 6.0 mph 96% 0.00 in
09:41 58.8 °F 57.7 °F 29.69 in SW 5.0 mph 6.0 mph 96% 0.00 in
09:46 58.8 °F 58.0 °F 29.69 in WSW 2.0 mph 7.0 mph 97% 0.00 in
09:51 58.8 °F 58.0 °F 29.69 in WSW 4.0 mph 4.0 mph 97% 0.00 in
09:56 58.7 °F 57.6 °F 29.69 in WSW 6.0 mph 8.0 mph 96% 0.00 in
09:58 58.7 °F 57.6 °F 29.70 in WNW 3.0 mph 9.0 mph 96% 0.00 in
10:01 58.7 °F 57.6 °F 29.70 in West 5.0 mph 7.0 mph 96% 0.00 in
10:06 58.8 °F 58.0 °F 29.70 in WNW 5.0 mph 6.0 mph 97% 0.00 in
10:11 58.9 °F 58.0 °F 29.70 in WSW 4.0 mph 5.0 mph 97% 0.00 in
10:12 58.9 °F 58.0 °F 29.70 in SW 4.0 mph 5.0 mph 97% 0.00 in
10:17 58.9 °F 57.8 °F 29.70 in WNW 6.0 mph 9.0 mph 96% 0.00 in
10:18 58.9 °F 57.8 °F 29.70 in WSW 6.0 mph 9.0 mph 96% 0.00 in
10:22 59.0 °F 58.2 °F 29.70 in WSW 3.0 mph 5.0 mph 97% 0.00 in
10:27 59.3 °F 58.2 °F 29.70 in West 3.0 mph 7.0 mph 96% 0.00 in
10:32 59.9 °F 58.8 °F 29.70 in West 4.0 mph 6.0 mph 96% 0.00 in
10:33 59.9 °F 58.8 °F 29.70 in West 4.0 mph 6.0 mph 96% 0.00 in
10:34 60.3 °F 59.2 °F 29.70 in WSW 7.0 mph 7.0 mph 96% 0.00 in
10:36 60.6 °F 59.2 °F 29.70 in WNW 5.0 mph 8.0 mph 95% 0.00 in
10:38 60.7 °F 59.3 °F 29.70 in WNW 6.0 mph 8.0 mph 95% 0.00 in
10:43 60.7 °F 59.0 °F 29.70 in WSW 6.0 mph 8.0 mph 94% 0.00 in
10:48 60.7 °F 58.7 °F 29.70 in WSW 7.0 mph 8.0 mph 93% 0.00 in
10:53 60.6 °F 58.6 °F 29.70 in SW 10.0 mph 13.0 mph 93% 0.00 in
10:54 60.5 °F 58.5 °F 29.70 in West 5.0 mph 10.0 mph 93% 0.00 in
10:58 60.3 °F 58.3 °F 29.70 in West 5.0 mph 10.0 mph 93% 0.00 in
11:03 60.3 °F 58.6 °F 29.70 in WSW 6.0 mph 9.0 mph 94% 0.00 in
11:04 60.3 °F 58.6 °F 29.70 in West 8.0 mph 9.0 mph 94% 0.00 in
11:09 61.1 °F 59.4 °F 29.70 in West 8.0 mph 11.0 mph 94% 0.00 in
11:14 61.1 °F 59.1 °F 29.70 in West 9.0 mph 14.0 mph 93% 0.00 in
11:19 60.9 °F 58.6 °F 29.71 in WSW 9.0 mph 12.0 mph 92% 0.00 in
11:30 60.8 °F 58.5 °F 29.71 in West 7.0 mph 16.0 mph 92% 0.00 in
12:00 60.5 °F 58.2 °F 29.72 in West 6.0 mph 18.0 mph 92% 0.00 in
12:30 60.0 °F 58.6 °F 29.72 in WNW 5.0 mph 12.0 mph 95% 0.32 in
13:00 60.1 °F 58.4 °F 29.72 in WNW 5.0 mph 13.0 mph 94% 0.08 in
13:30 61.8 °F 58.8 °F 29.72 in WNW 6.0 mph 17.0 mph 90% 0.00 in
14:00 61.8 °F 59.2 °F 29.72 in WNW 8.0 mph 21.0 mph 91% 0.00 in
14:30 61.9 °F 58.3 °F 29.72 in WNW 8.0 mph 20.0 mph 88% 0.00 in
15:00 61.8 °F 57.2 °F 29.72 in West 8.0 mph 16.0 mph 85% 0.00 in
15:30 61.0 °F 56.1 °F 29.72 in West 8.0 mph 15.0 mph 84% 0.00 in
16:00 61.8 °F 56.6 °F 29.72 in West 7.0 mph 14.0 mph 83% 0.00 in
16:30 60.7 °F 57.1 °F 29.72 in WNW 7.0 mph 16.0 mph 88% 0.00 in
17:00 58.7 °F 55.8 °F 29.73 in WNW 8.0 mph 17.0 mph 90% 0.00 in
17:30 58.1 °F 54.9 °F 29.73 in WNW 8.0 mph 17.0 mph 89% 0.00 in
18:00 58.0 °F 54.2 °F 29.73 in WNW 7.0 mph 19.0 mph 87% 0.00 in
18:30 58.3 °F 54.8 °F 29.73 in WNW 6.0 mph 13.0 mph 88% 0.00 in
19:00 57.4 °F 53.9 °F 29.73 in WNW 7.0 mph 15.0 mph 88% 0.00 in
19:30 57.0 °F 53.5 °F 29.74 in WNW 6.0 mph 11.0 mph 88% 0.00 in
20:00 56.4 °F 53.2 °F 29.74 in WNW 7.0 mph 13.0 mph 89% 0.00 in
20:30 55.6 °F 53.3 °F 29.75 in WNW 4.0 mph 10.0 mph 92% 0.00 in
21:00 54.7 °F 53.6 °F 29.76 in WNW 4.0 mph 10.0 mph 96% 0.00 in
21:30 54.5 °F 53.4 °F 29.76 in West 4.0 mph 11.0 mph 96% 0.00 in
22:00 54.4 °F 53.6 °F 29.77 in WNW 4.0 mph 9.0 mph 97% 0.00 in
22:30 54.3 °F 53.2 °F 29.78 in WNW 4.0 mph 11.0 mph 96% 0.00 in
23:00 54.1 °F 53.0 °F 29.78 in WNW 4.0 mph 9.0 mph 96% 0.00 in
23:30 54.1 °F 53.0 °F 29.78 in WNW 3.0 mph 8.0 mph 96% 0.00 in
Compliments of Weather Underground